Time;durP1;ratioP1;P1;durP2;ratioP2;P2;SDS_P1;SDS_P2;PMS_P1;PMS_P2;Temp;Humidity;BMP_temperature;BMP_pressure;BME280_temperature;BME280_humidity;BME280_pressure;Samples;Min_cycle;Max_cycle;Signal;HPM_P1;HPM_P2
2020/12/23 00:01:13;;;;;;;9.27;1.67;;;;;;;;;;5076947;28;20032;-55
2020/12/23 00:03:39;;;;;;;6.88;1.27;;;;;;;;;;5073271;28;20040;-50
2020/12/23 00:06:05;;;;;;;10.25;2.10;;;;;;;;;;5071733;28;20033;-57
2020/12/23 00:08:33;;;;;;;5.75;1.52;;;;;;;;;;5072072;28;20427;-55
2020/12/23 00:10:59;;;;;;;4.72;1.40;;;;;;;;;;5073000;28;20021;-57
2020/12/23 00:13:25;;;;;;;5.80;1.48;;;;;;;;;;5066411;28;20546;-54
2020/12/23 00:15:51;;;;;;;7.32;1.20;;;;;;;;;;5066874;28;20021;-52
2020/12/23 00:18:17;;;;;;;11.48;2.08;;;;;;;;;;5066755;28;20039;-57
2020/12/23 00:20:43;;;;;;;6.85;1.77;;;;;;;;;;5058490;28;20097;-54
2020/12/23 00:23:09;;;;;;;9.40;1.42;;;;;;;;;;5059767;28;20032;-52
2020/12/23 00:25:35;;;;;;;10.15;2.38;;;;;;;;;;5068946;28;20025;-55
2020/12/23 00:28:01;;;;;;;7.82;1.73;;;;;;;;;;5076904;28;20103;-54
2020/12/23 00:30:27;;;;;;;13.13;2.10;;;;;;;;;;5077013;28;20033;-51
2020/12/23 00:32:53;;;;;;;12.43;2.25;;;;;;;;;;5075606;28;20035;-50
2020/12/23 00:35:19;;;;;;;8.13;1.92;;;;;;;;;;5070881;28;20025;-53
2020/12/23 00:37:45;;;;;;;8.07;1.63;;;;;;;;;;5080840;28;20491;-55
2020/12/23 00:40:11;;;;;;;7.35;2.15;;;;;;;;;;5071452;28;20016;-51
2020/12/23 00:42:37;;;;;;;16.30;1.58;;;;;;;;;;5081036;28;20035;-52
2020/12/23 00:45:03;;;;;;;8.75;2.03;;;;;;;;;;5075259;28;20028;-55
2020/12/23 00:47:29;;;;;;;6.25;1.40;;;;;;;;;;5077125;28;20127;-54
2020/12/23 00:49:55;;;;;;;10.60;1.85;;;;;;;;;;5075315;28;20024;-51
2020/12/23 00:52:21;;;;;;;6.50;1.95;;;;;;;;;;5074981;28;20036;-56
2020/12/23 00:54:47;;;;;;;7.38;2.22;;;;;;;;;;5076755;28;20074;-51
2020/12/23 00:57:13;;;;;;;7.20;1.30;;;;;;;;;;5079049;28;20028;-55
2020/12/23 00:59:39;;;;;;;12.48;2.33;;;;;;;;;;5069902;28;20507;-57
2020/12/23 01:02:05;;;;;;;4.97;1.70;;;;;;;;;;5076606;28;20034;-53
2020/12/23 01:04:31;;;;;;;11.02;1.90;;;;;;;;;;5070701;28;20036;-56
2020/12/23 01:06:57;;;;;;;4.10;1.25;;;;;;;;;;5077820;28;20039;-55
2020/12/23 01:09:23;;;;;;;12.07;2.63;;;;;;;;;;5073585;28;20020;-55
2020/12/23 01:11:49;;;;;;;9.93;1.45;;;;;;;;;;5077447;28;20082;-52
2020/12/23 01:14:16;;;;;;;8.20;1.60;;;;;;;;;;5071708;28;20012;-57
2020/12/23 01:16:42;;;;;;;7.05;1.80;;;;;;;;;;5070306;28;20025;-57
2020/12/23 01:19:08;;;;;;;6.45;1.83;;;;;;;;;;5077014;28;20451;-55
2020/12/23 01:21:34;;;;;;;6.80;1.33;;;;;;;;;;5071421;28;20104;-54
2020/12/23 01:23:59;;;;;;;8.73;1.52;;;;;;;;;;5075256;28;20021;-51
2020/12/23 01:26:25;;;;;;;10.02;1.48;;;;;;;;;;5075500;28;20437;-53
2020/12/23 01:28:51;;;;;;;8.10;1.55;;;;;;;;;;5072329;28;20017;-56
2020/12/23 01:31:17;;;;;;;14.00;1.73;;;;;;;;;;5073711;28;20029;-54
2020/12/23 01:33:43;;;;;;;8.68;1.27;;;;;;;;;;5072630;28;20054;-51
2020/12/23 01:36:09;;;;;;;9.57;1.48;;;;;;;;;;5073377;28;20059;-55
2020/12/23 01:38:36;;;;;;;5.35;1.60;;;;;;;;;;5071115;28;20025;-54
2020/12/23 01:41:04;;;;;;;3.50;1.23;;;;;;;;;;5072162;28;20036;-52
2020/12/23 01:43:30;;;;;;;11.55;1.73;;;;;;;;;;5090077;28;20024;-53
2020/12/23 01:45:56;;;;;;;11.20;1.65;;;;;;;;;;5086422;28;20024;-56
2020/12/23 01:48:28;;;;;;;11.98;2.00;;;;;;;;;;5081713;28;20028;-54
2020/12/23 01:50:57;;;;;;;8.15;1.42;;;;;;;;;;5075681;28;20466;-52
2020/12/23 01:53:24;;;;;;;16.50;2.63;;;;;;;;;;5064707;28;20040;-55
2020/12/23 01:55:50;;;;;;;7.53;1.92;;;;;;;;;;5071764;28;20044;-54
2020/12/23 01:58:16;;;;;;;9.35;1.60;;;;;;;;;;5068651;28;20507;-57
2020/12/23 02:00:43;;;;;;;19.58;2.25;;;;;;;;;;5071734;28;20084;-53
2020/12/23 02:06:25;;;;;;;7.70;1.88;;;;;;;;;;5035121;28;20102;-54
2020/12/23 02:08:52;;;;;;;8.52;1.92;;;;;;;;;;5066819;28;20080;-57
2020/12/23 02:11:18;;;;;;;7.15;1.50;;;;;;;;;;5087553;28;20038;-57
2020/12/23 02:13:45;;;;;;;8.95;1.70;;;;;;;;;;5068139;28;20464;-55
2020/12/23 02:16:11;;;;;;;8.68;1.70;;;;;;;;;;5082287;28;20031;-56
2020/12/23 02:18:38;;;;;;;7.95;1.70;;;;;;;;;;5074036;28;20029;-54
2020/12/23 02:21:04;;;;;;;9.65;2.30;;;;;;;;;;5075687;28;20020;-55
2020/12/23 02:23:30;;;;;;;8.77;2.05;;;;;;;;;;5066903;28;20043;-51
2020/12/23 02:25:56;;;;;;;7.20;1.35;;;;;;;;;;5075094;28;20020;-53
2020/12/23 02:28:22;;;;;;;7.40;1.67;;;;;;;;;;5070996;28;20147;-57
2020/12/23 02:30:49;;;;;;;6.30;1.55;;;;;;;;;;5073142;28;20052;-52
2020/12/23 02:33:15;;;;;;;5.18;1.13;;;;;;;;;;5066715;28;20095;-52
2020/12/23 02:35:41;;;;;;;8.48;1.60;;;;;;;;;;5075810;28;20021;-54
2020/12/23 02:38:07;;;;;;;15.23;1.70;;;;;;;;;;5073353;28;20453;-53
2020/12/23 02:40:33;;;;;;;5.90;1.42;;;;;;;;;;5071615;28;20039;-51
2020/12/23 02:42:59;;;;;;;8.93;1.63;;;;;;;;;;5075671;28;20016;-55
2020/12/23 02:45:25;;;;;;;10.18;1.92;;;;;;;;;;5066941;28;20028;-54
2020/12/23 02:47:51;;;;;;;4.57;1.70;;;;;;;;;;5064959;28;20093;-55
2020/12/23 02:50:17;;;;;;;10.23;1.50;;;;;;;;;;5073397;28;20058;-54
2020/12/23 02:52:43;;;;;;;11.48;2.22;;;;;;;;;;5073977;28;20020;-53
2020/12/23 02:55:09;;;;;;;7.90;1.73;;;;;;;;;;5069855;28;20020;-57
2020/12/23 02:57:35;;;;;;;10.40;1.55;;;;;;;;;;5071777;28;20024;-53
2020/12/23 03:00:01;;;;;;;5.90;1.48;;;;;;;;;;5071244;28;20029;-55
2020/12/23 03:02:26;;;;;;;8.27;1.50;;;;;;;;;;5073098;28;20032;-57
2020/12/23 03:04:52;;;;;;;9.75;1.42;;;;;;;;;;5072494;28;20025;-56
2020/12/23 03:07:18;;;;;;;6.75;1.35;;;;;;;;;;5066153;28;20032;-55
2020/12/23 03:09:44;;;;;;;5.82;1.48;;;;;;;;;;5073836;28;20063;-55
2020/12/23 03:12:10;;;;;;;5.20;1.17;;;;;;;;;;5070554;28;20348;-56
2020/12/23 03:14:36;;;;;;;8.75;1.50;;;;;;;;;;5074477;28;20032;-52
2020/12/23 03:17:02;;;;;;;6.93;1.48;;;;;;;;;;5073389;28;20058;-53
2020/12/23 03:19:28;;;;;;;10.23;1.83;;;;;;;;;;5077433;28;20036;-51
2020/12/23 03:21:54;;;;;;;10.30;2.30;;;;;;;;;;5070329;28;20090;-54
2020/12/23 03:24:20;;;;;;;11.27;2.50;;;;;;;;;;5065853;28;20025;-57
2020/12/23 03:26:46;;;;;;;8.93;1.52;;;;;;;;;;5072410;28;20517;-57
2020/12/23 03:29:12;;;;;;;11.13;2.55;;;;;;;;;;5071815;28;20504;-52
2020/12/23 03:31:39;;;;;;;9.15;2.10;;;;;;;;;;5074290;28;20016;-53
2020/12/23 03:34:05;;;;;;;5.90;1.70;;;;;;;;;;5070906;28;20082;-53
2020/12/23 03:36:31;;;;;;;6.28;1.20;;;;;;;;;;5071696;28;20032;-50
2020/12/23 03:38:57;;;;;;;7.60;1.52;;;;;;;;;;5072947;28;20029;-54
2020/12/23 03:41:23;;;;;;;5.60;1.40;;;;;;;;;;5071146;28;20044;-57
2020/12/23 03:43:49;;;;;;;5.63;1.55;;;;;;;;;;5074241;28;20040;-54
2020/12/23 03:46:15;;;;;;;6.28;1.80;;;;;;;;;;5073174;28;20356;-54
2020/12/23 03:48:41;;;;;;;6.43;1.35;;;;;;;;;;5069372;28;20730;-56
2020/12/23 03:51:07;;;;;;;6.57;1.48;;;;;;;;;;5068288;28;20020;-57
2020/12/23 03:53:33;;;;;;;5.63;1.95;;;;;;;;;;5071382;28;20039;-53
2020/12/23 03:55:59;;;;;;;8.48;1.38;;;;;;;;;;5068114;28;20028;-54
2020/12/23 03:58:25;;;;;;;5.40;1.45;;;;;;;;;;5076615;28;20024;-56
2020/12/23 04:00:51;;;;;;;8.13;2.13;;;;;;;;;;5073321;28;20070;-56
2020/12/23 04:03:17;;;;;;;5.93;1.67;;;;;;;;;;5059470;28;20043;-56
2020/12/23 04:05:43;;;;;;;6.20;1.50;;;;;;;;;;5061117;28;20047;-50
2020/12/23 04:08:09;;;;;;;9.68;1.65;;;;;;;;;;5075143;28;20033;-49
2020/12/23 04:10:35;;;;;;;7.50;1.55;;;;;;;;;;5075709;28;20020;-53
2020/12/23 04:13:01;;;;;;;4.95;1.50;;;;;;;;;;5071772;28;20032;-53
2020/12/23 04:15:27;;;;;;;14.85;1.67;;;;;;;;;;5073795;28;20040;-51
2020/12/23 04:17:54;;;;;;;7.70;1.95;;;;;;;;;;5072911;28;20084;-51
2020/12/23 04:20:20;;;;;;;4.90;1.30;;;;;;;;;;5074545;28;20082;-54
2020/12/23 04:22:46;;;;;;;8.70;1.40;;;;;;;;;;5071817;28;20467;-55
2020/12/23 04:25:12;;;;;;;6.25;1.63;;;;;;;;;;5067970;28;20384;-52
2020/12/23 04:27:39;;;;;;;11.65;1.83;;;;;;;;;;5073824;28;20466;-53
2020/12/23 04:30:05;;;;;;;7.75;1.67;;;;;;;;;;5069385;28;20345;-50
2020/12/23 04:32:32;;;;;;;6.18;1.40;;;;;;;;;;5064689;28;20532;-54
2020/12/23 04:35:01;;;;;;;8.38;1.45;;;;;;;;;;5073533;28;20453;-55
2020/12/23 04:37:28;;;;;;;5.18;1.60;;;;;;;;;;5068684;28;20033;-52
2020/12/23 04:39:54;;;;;;;5.32;1.45;;;;;;;;;;5073118;28;20025;-55
2020/12/23 04:42:20;;;;;;;4.57;1.42;;;;;;;;;;5076497;28;20035;-51
2020/12/23 04:44:46;;;;;;;9.68;2.22;;;;;;;;;;5072511;28;20025;-52
2020/12/23 04:47:15;;;;;;;9.52;1.50;;;;;;;;;;5069961;28;20473;-53
2020/12/23 04:49:45;;;;;;;4.60;1.27;;;;;;;;;;5071235;28;20064;-55
2020/12/23 04:52:11;;;;;;;9.40;1.77;;;;;;;;;;5067429;28;20025;-56
2020/12/23 04:54:37;;;;;;;6.75;1.42;;;;;;;;;;5069570;28;20499;-52
2020/12/23 04:57:03;;;;;;;10.27;1.27;;;;;;;;;;5071017;28;20041;-51
2020/12/23 04:59:29;;;;;;;11.90;2.38;;;;;;;;;;5069250;28;20032;-53
2020/12/23 05:02:01;;;;;;;6.80;1.60;;;;;;;;;;5070245;28;20043;-56
2020/12/23 05:04:27;;;;;;;4.10;0.95;;;;;;;;;;5070852;28;20040;-50
2020/12/23 05:07:06;;;;;;;12.35;2.15;;;;;;;;;;5072115;28;20391;-52
2020/12/23 05:09:32;;;;;;;9.75;2.00;;;;;;;;;;5072573;28;20372;-49
2020/12/23 05:11:59;;;;;;;9.90;1.67;;;;;;;;;;5074145;28;20031;-51
2020/12/23 05:14:25;;;;;;;12.02;2.22;;;;;;;;;;5075314;28;20039;-52
2020/12/23 05:16:52;;;;;;;16.13;2.25;;;;;;;;;;5078145;28;20040;-55
2020/12/23 05:19:19;;;;;;;7.60;1.30;;;;;;;;;;5071065;28;20032;-55
2020/12/23 05:21:45;;;;;;;13.23;1.73;;;;;;;;;;5074297;28;20418;-52
2020/12/23 05:24:12;;;;;;;11.23;2.03;;;;;;;;;;5072455;28;20028;-53
2020/12/23 05:26:44;;;;;;;13.32;1.98;;;;;;;;;;5069922;28;20071;-52
2020/12/23 05:29:14;;;;;;;10.40;1.50;;;;;;;;;;5073129;28;20031;-57
2020/12/23 05:31:40;;;;;;;8.93;1.80;;;;;;;;;;5073930;28;20328;-54
2020/12/23 05:34:07;;;;;;;12.82;1.70;;;;;;;;;;5073795;28;20028;-53
2020/12/23 05:36:34;;;;;;;13.05;2.00;;;;;;;;;;5076195;28;20024;-55
2020/12/23 05:39:00;;;;;;;14.10;2.25;;;;;;;;;;5073120;28;20423;-57
2020/12/23 05:41:27;;;;;;;6.15;1.67;;;;;;;;;;5070807;28;20147;-54
2020/12/23 05:43:53;;;;;;;16.17;2.80;;;;;;;;;;5072569;28;20025;-54
2020/12/23 05:46:19;;;;;;;9.93;2.03;;;;;;;;;;5076384;28;20090;-54
2020/12/23 05:48:45;;;;;;;10.30;1.67;;;;;;;;;;5069314;28;20028;-53
2020/12/23 05:51:11;;;;;;;7.22;1.95;;;;;;;;;;5070634;28;20371;-55
2020/12/23 05:53:38;;;;;;;8.10;2.25;;;;;;;;;;5073289;28;20361;-55
2020/12/23 05:56:06;;;;;;;14.68;2.13;;;;;;;;;;5072582;28;20029;-56
2020/12/23 05:58:32;;;;;;;4.93;1.52;;;;;;;;;;5070663;28;20380;-54
2020/12/23 06:00:59;;;;;;;11.40;2.00;;;;;;;;;;5078576;28;20024;-54
2020/12/23 06:03:44;;;;;;;9.20;1.60;;;;;;;;;;5067619;28;20415;-50
2020/12/23 06:06:12;;;;;;;12.70;1.95;;;;;;;;;;5073288;28;20046;-53
2020/12/23 06:08:38;;;;;;;12.43;1.83;;;;;;;;;;5070227;28;20016;-55
2020/12/23 06:11:27;;;;;;;15.50;1.95;;;;;;;;;;5068751;28;20087;-53
2020/12/23 06:14:12;;;;;;;11.90;1.90;;;;;;;;;;5069164;28;20369;-52
2020/12/23 06:16:39;;;;;;;6.30;1.40;;;;;;;;;;5069811;28;20051;-55
2020/12/23 06:19:09;;;;;;;11.30;1.55;;;;;;;;;;5078799;28;20047;-53
2020/12/23 06:21:35;;;;;;;7.43;1.75;;;;;;;;;;5066761;28;20418;-56
2020/12/23 06:24:02;;;;;;;10.43;2.00;;;;;;;;;;5069023;28;20391;-52
2020/12/23 06:26:33;;;;;;;11.40;2.70;;;;;;;;;;5071529;28;20056;-56
2020/12/23 06:28:59;;;;;;;7.22;1.30;;;;;;;;;;5078620;28;20012;-54
2020/12/23 06:31:30;;;;;;;9.98;1.67;;;;;;;;;;5072220;28;20031;-52
2020/12/23 06:33:57;;;;;;;11.02;1.85;;;;;;;;;;5071709;28;20017;-54
2020/12/23 06:36:30;;;;;;;7.93;1.58;;;;;;;;;;5069579;28;20078;-54
2020/12/23 06:39:14;;;;;;;10.90;1.50;;;;;;;;;;5072401;28;20503;-51
2020/12/23 06:41:40;;;;;;;12.68;1.90;;;;;;;;;;5073436;28;20588;-54
2020/12/23 06:44:09;;;;;;;13.15;2.05;;;;;;;;;;5072128;28;20028;-56
2020/12/23 06:46:58;;;;;;;9.82;1.65;;;;;;;;;;5069619;28;20087;-52
2020/12/23 06:49:37;;;;;;;14.90;1.55;;;;;;;;;;5071656;28;20032;-54
2020/12/23 06:52:29;;;;;;;9.73;1.73;;;;;;;;;;5068782;28;20047;-52
2020/12/23 06:54:56;;;;;;;20.25;2.33;;;;;;;;;;5071356;28;20034;-55
2020/12/23 06:57:49;;;;;;;9.05;2.03;;;;;;;;;;5070666;28;20021;-53
2020/12/23 07:00:33;;;;;;;10.27;2.00;;;;;;;;;;5066335;28;20576;-54
2020/12/23 07:03:00;;;;;;;7.88;1.90;;;;;;;;;;5073605;28;20040;-54
2020/12/23 07:05:29;;;;;;;11.30;2.55;;;;;;;;;;5072627;28;20056;-56
2020/12/23 07:07:55;;;;;;;11.13;2.63;;;;;;;;;;5080653;28;20040;-56
2020/12/23 07:10:23;;;;;;;7.93;2.15;;;;;;;;;;5073071;28;20460;-53
2020/12/23 07:12:56;;;;;;;14.35;2.75;;;;;;;;;;5069094;28;20068;-55
2020/12/23 07:15:25;;;;;;;7.97;2.22;;;;;;;;;;5074458;28;20630;-55
2020/12/23 07:17:52;;;;;;;5.40;1.85;;;;;;;;;;5071071;28;20047;-51
2020/12/23 07:20:21;;;;;;;5.75;1.70;;;;;;;;;;5072692;28;20023;-53
2020/12/23 07:22:48;;;;;;;12.25;2.25;;;;;;;;;;5067848;28;20039;-50
2020/12/23 07:25:26;;;;;;;15.57;2.00;;;;;;;;;;5072547;28;20032;-50
2020/12/23 07:27:55;;;;;;;14.80;1.83;;;;;;;;;;5070154;28;20430;-49
2020/12/23 07:30:21;;;;;;;11.55;2.60;;;;;;;;;;5071392;28;20341;-52
2020/12/23 07:32:58;;;;;;;5.43;1.85;;;;;;;;;;5072267;28;20108;-53
2020/12/23 07:35:25;;;;;;;9.20;2.40;;;;;;;;;;5067950;28;20504;-53
2020/12/23 07:37:52;;;;;;;13.18;2.38;;;;;;;;;;5068459;28;20649;-50
2020/12/23 07:40:18;;;;;;;17.15;2.95;;;;;;;;;;5070479;28;20036;-52
2020/12/23 07:42:47;;;;;;;12.05;2.97;;;;;;;;;;5071852;28;20051;-56
2020/12/23 07:45:13;;;;;;;11.50;2.30;;;;;;;;;;5070953;28;20103;-52
2020/12/23 07:47:39;;;;;;;28.83;10.60;;;;;;;;;;5073738;28;20538;-51
2020/12/23 07:50:06;;;;;;;15.65;5.72;;;;;;;;;;5067820;28;20032;-55
2020/12/23 07:52:33;;;;;;;16.92;2.75;;;;;;;;;;5076300;28;20028;-57
2020/12/23 07:55:12;;;;;;;15.63;2.75;;;;;;;;;;5064853;28;20028;-54
2020/12/23 07:57:38;;;;;;;5.13;1.83;;;;;;;;;;5067658;28;20033;-55
2020/12/23 08:00:05;;;;;;;13.68;2.25;;;;;;;;;;5069893;28;20028;-57
2020/12/23 08:02:31;;;;;;;8.85;1.90;;;;;;;;;;5070281;28;20036;-55
2020/12/23 08:04:58;;;;;;;12.52;2.42;;;;;;;;;;5065136;28;20029;-52
2020/12/23 08:07:25;;;;;;;16.33;3.10;;;;;;;;;;5070393;28;20049;-57
2020/12/23 08:09:51;;;;;;;10.80;2.58;;;;;;;;;;5068402;28;20078;-57
2020/12/23 08:12:20;;;;;;;12.05;3.25;;;;;;;;;;5063115;28;20053;-54
2020/12/23 08:14:46;;;;;;;17.52;3.80;;;;;;;;;;5059242;28;20486;-55
2020/12/23 08:17:22;;;;;;;20.15;3.40;;;;;;;;;;5066184;28;20033;-56
2020/12/23 08:20:01;;;;;;;15.07;3.42;;;;;;;;;;5067060;28;20029;-57
2020/12/23 08:22:28;;;;;;;19.17;2.42;;;;;;;;;;5072493;28;20643;-56
2020/12/23 08:25:01;;;;;;;14.23;2.92;;;;;;;;;;5069420;28;20363;-55
2020/12/23 08:27:27;;;;;;;8.68;2.38;;;;;;;;;;5069787;28;20106;-53
2020/12/23 08:29:53;;;;;;;15.52;2.83;;;;;;;;;;5066136;28;20030;-52
2020/12/23 08:32:23;;;;;;;13.23;4.78;;;;;;;;;;5070270;28;20472;-55
2020/12/23 08:34:50;;;;;;;17.60;5.00;;;;;;;;;;5071700;28;20471;-55
2020/12/23 08:37:23;;;;;;;17.40;3.35;;;;;;;;;;5068278;28;20031;-51
2020/12/23 08:39:58;;;;;;;19.02;4.82;;;;;;;;;;5066034;28;20029;-56
2020/12/23 08:42:25;;;;;;;15.27;3.13;;;;;;;;;;5076590;28;20035;-51
2020/12/23 08:44:52;;;;;;;17.20;3.83;;;;;;;;;;5072293;28;20032;-50
2020/12/23 08:47:25;;;;;;;17.10;3.75;;;;;;;;;;5070050;28;20115;-57
2020/12/23 08:49:52;;;;;;;16.52;2.80;;;;;;;;;;5073596;28;20044;-52
2020/12/23 08:52:18;;;;;;;18.33;4.03;;;;;;;;;;5067022;28;20024;-54
2020/12/23 08:54:45;;;;;;;14.82;3.50;;;;;;;;;;5062437;28;20024;-54
2020/12/23 08:57:12;;;;;;;21.13;4.57;;;;;;;;;;5073613;28;20044;-52
2020/12/23 08:59:41;;;;;;;17.45;4.35;;;;;;;;;;5068003;28;20058;-53
2020/12/23 09:02:16;;;;;;;19.35;4.63;;;;;;;;;;5067076;28;20058;-52
2020/12/23 09:04:42;;;;;;;20.45;4.35;;;;;;;;;;5070739;28;20770;-53
2020/12/23 09:07:08;;;;;;;14.10;3.70;;;;;;;;;;5076606;28;20140;-53
2020/12/23 09:09:34;;;;;;;18.00;4.22;;;;;;;;;;5078970;28;20108;-52
2020/12/23 09:12:06;;;;;;;19.27;5.50;;;;;;;;;;5068805;28;20096;-55
2020/12/23 09:14:33;;;;;;;18.95;5.05;;;;;;;;;;5070390;28;20605;-56
2020/12/23 09:17:10;;;;;;;16.48;4.53;;;;;;;;;;5074257;28;20112;-55
2020/12/23 09:19:51;;;;;;;21.15;3.58;;;;;;;;;;5062294;28;20154;-54
2020/12/23 09:22:24;;;;;;;15.82;3.53;;;;;;;;;;5070996;28;20029;-55
2020/12/23 09:24:50;;;;;;;;;;;;;;;;;;5063808;28;20071;-55
2020/12/23 09:27:18;;;;;;;26.90;4.15;;;;;;;;;;5070338;28;19955;-54
2020/12/23 09:29:44;;;;;;;19.88;3.15;;;;;;;;;;5068972;28;20116;-53
2020/12/23 09:32:10;;;;;;;15.50;2.85;;;;;;;;;;5068179;28;20016;-53
2020/12/23 09:34:36;;;;;;;11.80;2.58;;;;;;;;;;5070189;28;20025;-56
2020/12/23 09:37:02;;;;;;;14.77;3.20;;;;;;;;;;5061515;28;20036;-55
2020/12/23 09:39:28;;;;;;;21.65;3.67;;;;;;;;;;5071938;28;20078;-56
2020/12/23 09:42:07;;;;;;;15.32;3.10;;;;;;;;;;5071286;28;20033;-50
2020/12/23 09:44:34;;;;;;;26.15;3.88;;;;;;;;;;5063361;28;20103;-55
2020/12/23 09:47:00;;;;;;;19.83;3.25;;;;;;;;;;5067542;28;20029;-56
2020/12/23 09:49:27;;;;;;;15.55;3.60;;;;;;;;;;5061505;28;20048;-55
2020/12/23 09:51:53;;;;;;;23.38;3.47;;;;;;;;;;5067257;28;20028;-57
2020/12/23 09:54:19;;;;;;;20.65;4.38;;;;;;;;;;5063126;28;20668;-52
2020/12/23 09:56:53;;;;;;;17.25;3.78;;;;;;;;;;5070759;28;20036;-55
2020/12/23 09:59:19;;;;;;;17.73;4.85;;;;;;;;;;5067397;28;20040;-57
2020/12/23 10:01:45;;;;;;;14.65;3.40;;;;;;;;;;5068534;28;20035;-57
2020/12/23 10:04:11;;;;;;;21.13;3.60;;;;;;;;;;5068281;28;20029;-56
2020/12/23 10:06:37;;;;;;;13.07;3.38;;;;;;;;;;5069033;28;20738;-54
2020/12/23 10:09:04;;;;;;;12.35;3.47;;;;;;;;;;5070542;28;20108;-55
2020/12/23 10:11:30;;;;;;;19.70;2.90;;;;;;;;;;5070295;28;20123;-56
2020/12/23 10:13:56;;;;;;;20.13;3.35;;;;;;;;;;5060883;28;20025;-58
2020/12/23 10:16:22;;;;;;;14.00;3.33;;;;;;;;;;5067263;28;20036;-57
2020/12/23 10:18:48;;;;;;;20.38;3.70;;;;;;;;;;5070215;28;20039;-57
2020/12/23 10:21:14;;;;;;;23.92;4.68;;;;;;;;;;5059192;28;20024;-56
2020/12/23 10:23:40;;;;;;;20.75;3.38;;;;;;;;;;5067554;28;20036;-57
2020/12/23 10:26:06;;;;;;;18.63;3.78;;;;;;;;;;5065637;28;20051;-55
2020/12/23 10:28:32;;;;;;;23.23;3.63;;;;;;;;;;5060489;28;20472;-55
2020/12/23 10:30:58;;;;;;;12.02;3.80;;;;;;;;;;5072993;28;20069;-55
2020/12/23 10:33:24;;;;;;;17.27;3.67;;;;;;;;;;5065919;28;20027;-56
2020/12/23 10:35:50;;;;;;;17.70;3.17;;;;;;;;;;5069228;28;20025;-57
2020/12/23 10:38:16;;;;;;;21.83;3.45;;;;;;;;;;5071941;28;20012;-57
2020/12/23 10:40:42;;;;;;;13.95;3.38;;;;;;;;;;5067921;28;20471;-56
2020/12/23 10:43:08;;;;;;;19.83;3.95;;;;;;;;;;5063366;28;20017;-54
2020/12/23 10:45:34;;;;;;;16.67;4.00;;;;;;;;;;5059000;28;20037;-56
2020/12/23 10:48:00;;;;;;;21.80;3.63;;;;;;;;;;5064079;28;20043;-54
2020/12/23 10:50:26;;;;;;;18.88;4.20;;;;;;;;;;5068884;28;20032;-54
2020/12/23 10:52:52;;;;;;;14.00;5.25;;;;;;;;;;5071186;28;20394;-57
2020/12/23 10:55:18;;;;;;;21.38;5.05;;;;;;;;;;5069911;28;20729;-54
2020/12/23 10:57:44;;;;;;;24.58;11.50;;;;;;;;;;5065960;28;20518;-54
2020/12/23 11:00:10;;;;;;;22.75;9.18;;;;;;;;;;5067195;28;20486;-56
2020/12/23 11:02:36;;;;;;;23.48;7.30;;;;;;;;;;5064420;28;20055;-54
2020/12/23 11:05:02;;;;;;;19.35;6.50;;;;;;;;;;5065117;28;20441;-57
2020/12/23 11:07:28;;;;;;;14.65;5.75;;;;;;;;;;5059052;28;20050;-56
2020/12/23 11:09:54;;;;;;;19.20;7.15;;;;;;;;;;5065432;28;20029;-56
2020/12/23 11:12:19;;;;;;;25.48;6.50;;;;;;;;;;5070814;28;20013;-57
2020/12/23 11:14:47;;;;;;;20.48;7.28;;;;;;;;;;5075920;28;20024;-57
2020/12/23 11:17:13;;;;;;;15.15;5.13;;;;;;;;;;5069167;28;20033;-56
2020/12/23 11:19:39;;;;;;;15.48;3.92;;;;;;;;;;5067462;28;20051;-57
2020/12/23 11:22:05;;;;;;;20.77;4.03;;;;;;;;;;5064858;28;20412;-55
2020/12/23 11:24:31;;;;;;;15.88;4.93;;;;;;;;;;5067303;28;20032;-55
2020/12/23 11:26:59;;;;;;;15.68;4.90;;;;;;;;;;5067796;28;20498;-57
2020/12/23 11:29:25;;;;;;;17.13;5.15;;;;;;;;;;5066748;28;20111;-55
2020/12/23 11:31:51;;;;;;;23.13;6.82;;;;;;;;;;5065102;28;20028;-58
2020/12/23 11:34:17;;;;;;;24.83;5.82;;;;;;;;;;5070963;28;20375;-54
2020/12/23 11:36:43;;;;;;;25.27;6.40;;;;;;;;;;5066568;28;20043;-57
2020/12/23 11:39:09;;;;;;;25.48;6.00;;;;;;;;;;5070963;28;20052;-57
2020/12/23 11:41:35;;;;;;;23.05;6.93;;;;;;;;;;5061544;28;20028;-57
2020/12/23 11:44:01;;;;;;;20.38;6.15;;;;;;;;;;5070973;28;20245;-54
2020/12/23 11:46:29;;;;;;;29.75;6.65;;;;;;;;;;5071291;28;20112;-56
2020/12/23 11:48:55;;;;;;;23.02;7.35;;;;;;;;;;5072941;28;20028;-53
2020/12/23 11:51:21;;;;;;;19.55;7.60;;;;;;;;;;5064285;28;20488;-55
2020/12/23 11:53:47;;;;;;;19.15;6.15;;;;;;;;;;5070911;28;20471;-56
2020/12/23 11:56:13;;;;;;;21.52;6.60;;;;;;;;;;5072507;28;20024;-57
2020/12/23 11:58:39;;;;;;;16.30;6.15;;;;;;;;;;5073211;28;20028;-54
2020/12/23 12:01:05;;;;;;;24.60;6.35;;;;;;;;;;5075707;28;20472;-54
2020/12/23 12:03:31;;;;;;;25.92;6.32;;;;;;;;;;5084869;28;20020;-52
2020/12/23 12:05:57;;;;;;;22.25;6.18;;;;;;;;;;5087670;28;20032;-57
2020/12/23 12:08:23;;;;;;;19.10;7.47;;;;;;;;;;5087828;28;20036;-52
2020/12/23 12:10:49;;;;;;;14.45;6.50;;;;;;;;;;5088188;28;20050;-56
2020/12/23 12:13:15;;;;;;;24.00;6.20;;;;;;;;;;5084631;28;20024;-58
2020/12/23 12:15:41;;;;;;;18.75;5.72;;;;;;;;;;5074192;28;20476;-57
2020/12/23 12:18:07;;;;;;;19.65;5.80;;;;;;;;;;5066320;28;20029;-55
2020/12/23 12:20:33;;;;;;;17.45;5.93;;;;;;;;;;5064400;28;20042;-55
2020/12/23 12:22:59;;;;;;;20.35;6.20;;;;;;;;;;5072976;28;20040;-53
2020/12/23 12:25:25;;;;;;;11.27;5.28;;;;;;;;;;5065694;28;20017;-51
2020/12/23 12:27:51;;;;;;;23.15;5.88;;;;;;;;;;5078287;28;20085;-50
2020/12/23 12:30:17;;;;;;;23.58;5.88;;;;;;;;;;5091376;28;20078;-52
2020/12/23 12:32:45;;;;;;;21.90;5.97;;;;;;;;;;5091052;28;20392;-56
2020/12/23 12:35:11;;;;;;;24.55;5.50;;;;;;;;;;5064175;28;20077;-57
2020/12/23 12:37:37;;;;;;;21.50;5.53;;;;;;;;;;5071089;28;20036;-50
2020/12/23 12:40:03;;;;;;;23.30;5.47;;;;;;;;;;5085420;28;20073;-51
2020/12/23 12:42:29;;;;;;;26.83;5.07;;;;;;;;;;5091908;28;20051;-57
2020/12/23 12:44:55;;;;;;;19.30;5.22;;;;;;;;;;5081657;28;20436;-57
2020/12/23 12:47:21;;;;;;;25.67;5.93;;;;;;;;;;5088541;28;20031;-53
2020/12/23 12:49:46;;;;;;;21.38;5.53;;;;;;;;;;5091067;28;20025;-52
2020/12/23 12:52:12;;;;;;;23.80;8.95;;;;;;;;;;5063337;28;20035;-56
2020/12/23 12:54:38;;;;;;;15.30;5.38;;;;;;;;;;5079730;28;20087;-56
2020/12/23 12:57:04;;;;;;;21.50;5.75;;;;;;;;;;5063285;28;20081;-54
2020/12/23 12:59:30;;;;;;;20.45;4.55;;;;;;;;;;5083217;28;20050;-54
2020/12/23 13:01:57;;;;;;;19.75;5.63;;;;;;;;;;5090790;28;20051;-57
2020/12/23 13:04:23;;;;;;;17.45;5.72;;;;;;;;;;5091122;28;20028;-53
2020/12/23 13:06:49;;;;;;;24.85;5.60;;;;;;;;;;5076911;28;20048;-50
2020/12/23 13:09:15;;;;;;;16.75;4.65;;;;;;;;;;5065109;28;20028;-52
2020/12/23 13:11:41;;;;;;;19.67;5.18;;;;;;;;;;5064567;28;20040;-53
2020/12/23 13:14:07;;;;;;;34.78;10.85;;;;;;;;;;5065601;28;20025;-54
2020/12/23 13:16:33;;;;;;;18.77;5.20;;;;;;;;;;5067745;28;20086;-54
2020/12/23 13:19:00;;;;;;;22.05;5.22;;;;;;;;;;5075279;28;20411;-49
2020/12/23 13:21:26;;;;;;;21.38;5.05;;;;;;;;;;5063820;28;20148;-54
2020/12/23 13:23:52;;;;;;;19.70;5.38;;;;;;;;;;5062643;28;20429;-51
2020/12/23 13:26:18;;;;;;;15.40;5.28;;;;;;;;;;5070218;28;20024;-53
2020/12/23 13:28:50;;;;;;;15.57;4.68;;;;;;;;;;5069713;28;20033;-51
2020/12/23 13:31:22;;;;;;;17.25;5.20;;;;;;;;;;5071870;28;20540;-50
2020/12/23 13:33:48;;;;;;;21.70;5.15;;;;;;;;;;5076166;28;20059;-55
2020/12/23 13:36:14;;;;;;;22.42;5.70;;;;;;;;;;5075091;28;20028;-56
2020/12/23 13:38:40;;;;;;;24.17;5.97;;;;;;;;;;5066670;28;20045;-56
2020/12/23 13:41:09;;;;;;;23.67;6.15;;;;;;;;;;5064027;28;20028;-54
2020/12/23 13:43:35;;;;;;;24.50;6.97;;;;;;;;;;5068197;28;20032;-51
2020/12/23 13:46:01;;;;;;;17.42;5.95;;;;;;;;;;5062302;28;20084;-54
2020/12/23 13:48:27;;;;;;;16.98;5.80;;;;;;;;;;5068252;28;20086;-51
2020/12/23 13:50:53;;;;;;;28.58;5.72;;;;;;;;;;5064718;28;20021;-56
2020/12/23 13:53:19;;;;;;;20.27;5.80;;;;;;;;;;5073551;28;20017;-52
2020/12/23 13:55:45;;;;;;;24.58;5.90;;;;;;;;;;5071559;28;20013;-55
2020/12/23 13:58:11;;;;;;;29.70;6.15;;;;;;;;;;5066188;28;20044;-55
2020/12/23 14:00:37;;;;;;;23.30;5.72;;;;;;;;;;5065350;28;20024;-54
2020/12/23 14:03:03;;;;;;;32.35;6.75;;;;;;;;;;5075965;28;20029;-56
2020/12/23 14:05:29;;;;;;;25.77;7.35;;;;;;;;;;5069943;28;20070;-56
2020/12/23 14:07:55;;;;;;;27.00;5.95;;;;;;;;;;5061789;28;20040;-56
2020/12/23 14:10:24;;;;;;;26.67;5.97;;;;;;;;;;5076585;28;20035;-56
2020/12/23 14:12:51;;;;;;;21.58;5.60;;;;;;;;;;5064384;28;20029;-54
2020/12/23 14:15:20;;;;;;;20.48;6.05;;;;;;;;;;5064416;28;20406;-56
2020/12/23 14:17:46;;;;;;;25.42;5.95;;;;;;;;;;5068580;28;20028;-56
2020/12/23 14:20:12;;;;;;;23.83;6.65;;;;;;;;;;5069564;28;20029;-55
2020/12/23 14:22:38;;;;;;;20.00;6.03;;;;;;;;;;5068763;28;20032;-52
2020/12/23 14:25:04;;;;;;;24.40;6.78;;;;;;;;;;5067390;28;20036;-54
2020/12/23 14:27:30;;;;;;;24.20;5.50;;;;;;;;;;5064672;28;20081;-55
2020/12/23 14:29:56;;;;;;;26.05;6.55;;;;;;;;;;5068384;28;20035;-55
2020/12/23 14:32:22;;;;;;;26.50;6.20;;;;;;;;;;5072216;28;20445;-57
2020/12/23 14:34:48;;;;;;;25.13;6.85;;;;;;;;;;5075063;28;20035;-55
2020/12/23 14:37:14;;;;;;;23.95;6.72;;;;;;;;;;5071073;28;20025;-52